Washta, Iowa
Current Conditions -  °F | °C
As of 1:55 PM on Sunday 25 Jan 2015 (Local Time) from KCKP Reporting Station
Overcast Overcast  
Wind Chill: 25°   Ceiling: 1100
Heat Index: 32°   Visibility: 10mi
Dew Point: 30°   Wind: 8mph
Humidity: 92%   Direction: 20°NNE
Pressure: 30.01"   Gusts: NA
Location:  42.58°N, 95.72°W
Report Text: KCKP 251955Z AUTO 02007KT 10SM OVC011 00/M01 A3001 RMK AO2 T00011010
Loading
Personal Weather Stations






























Interactive Weather Map New forecast layout! Learn more

10-Day Weather Forecast

Advertisements
Track Severe Weather on mobile